createdAt,value
2019-02-07T00:00:17.372Z,45.90
2019-02-07T00:02:43.906Z,41.43
2019-02-07T00:05:10.438Z,39.90
2019-02-07T00:07:36.976Z,42.77
2019-02-07T00:10:03.818Z,45.23
2019-02-07T00:12:30.352Z,48.77
2019-02-07T00:14:56.883Z,44.80
2019-02-07T00:17:23.420Z,42.50
2019-02-07T00:19:50.875Z,40.63
2019-02-07T00:22:17.512Z,43.00
2019-02-07T00:24:44.251Z,42.53
2019-02-07T00:27:11.094Z,42.77
2019-02-07T00:29:37.631Z,42.33
2019-02-07T00:32:04.226Z,41.60
2019-02-07T00:34:31.311Z,46.73
2019-02-07T00:36:58.462Z,43.40
2019-02-07T00:39:24.997Z,46.33
2019-02-07T00:41:51.835Z,42.37
2019-02-07T00:44:18.370Z,42.63
2019-02-07T00:46:45.214Z,43.63
2019-02-07T00:49:11.746Z,42.73
2019-02-07T00:51:38.286Z,43.53
2019-02-07T00:54:04.814Z,46.17
2019-02-07T00:56:31.965Z,46.20
2019-02-07T00:58:58.810Z,43.13
2019-02-07T01:01:25.647Z,43.23
2019-02-07T01:03:52.184Z,45.10
2019-02-07T01:06:19.023Z,46.80
2019-02-07T01:08:45.921Z,40.17
2019-02-07T01:11:12.706Z,42.63
2019-02-07T01:13:39.550Z,43.53
2019-02-07T01:16:06.083Z,43.87
2019-02-07T01:18:32.617Z,44.47
2019-02-07T01:20:59.459Z,43.43
2019-02-07T01:23:26.599Z,39.37
2019-02-07T01:25:53.143Z,41.50
2019-02-07T01:28:19.681Z,42.63
2019-02-07T01:30:46.223Z,41.53
2019-02-07T01:33:13.055Z,42.17
2019-02-07T01:35:39.894Z,43.63
2019-02-07T01:38:06.429Z,44.57
2019-02-07T01:40:33.271Z,45.80
2019-02-07T01:42:59.806Z,44.83
2019-02-07T01:45:26.357Z,44.60
2019-02-07T01:47:53.183Z,42.60
2019-02-07T01:50:20.023Z,39.73
2019-02-07T01:52:47.482Z,42.70
2019-02-07T01:55:14.015Z,42.93
2019-02-07T01:57:40.549Z,45.37
2019-02-07T02:00:07.392Z,47.40
2019-02-07T02:02:33.925Z,42.47
2019-02-07T02:05:00.480Z,40.67
2019-02-07T02:07:26.998Z,43.10
2019-02-07T02:09:53.528Z,43.17
2019-02-07T02:12:20.372Z,41.20
2019-02-07T02:14:46.895Z,45.30
2019-02-07T02:17:13.745Z,41.90
2019-02-07T02:19:40.281Z,41.33
2019-02-07T02:22:07.126Z,45.87
2019-02-07T02:24:34.027Z,41.70
2019-02-07T02:27:00.805Z,45.23
2019-02-07T02:29:27.340Z,44.03
2019-02-07T02:31:54.181Z,41.13
2019-02-07T02:34:20.716Z,38.63
2019-02-07T02:36:47.559Z,41.40
2019-02-07T02:39:14.399Z,37.83
2019-02-07T02:41:40.935Z,41.43
2019-02-07T02:44:07.824Z,39.53
2019-02-07T02:46:34.617Z,41.40
2019-02-07T02:49:01.459Z,40.03
2019-02-07T02:51:28.305Z,36.93
2019-02-07T02:53:54.835Z,39.23
2019-02-07T02:56:21.370Z,38.40
2019-02-07T02:58:48.212Z,43.00
2019-02-07T03:01:15.064Z,39.70
2019-02-07T03:03:41.591Z,42.13
2019-02-07T03:06:08.123Z,41.27
2019-02-07T03:08:35.275Z,39.30
2019-02-07T03:11:01.807Z,40.80
2019-02-07T03:13:28.649Z,42.27
2019-02-07T03:15:55.494Z,41.93
2019-02-07T03:18:22.023Z,43.93
2019-02-07T03:20:48.558Z,41.67
2019-02-07T03:23:15.399Z,42.20
2019-02-07T03:25:41.936Z,40.87
2019-02-07T03:28:09.082Z,45.93
2019-02-07T03:30:35.929Z,39.10
2019-02-07T03:33:02.463Z,45.87
2019-02-07T03:35:28.993Z,39.93
2019-02-07T03:37:55.536Z,44.97
2019-02-07T03:40:22.063Z,39.90
2019-02-07T03:42:48.601Z,40.77
2019-02-07T03:45:15.441Z,36.43
2019-02-07T03:47:42.281Z,41.73
2019-02-07T03:50:09.122Z,38.60
2019-02-07T03:52:35.660Z,42.47
2019-02-07T03:55:02.503Z,43.13
2019-02-07T03:57:29.032Z,44.17
2019-02-07T03:59:55.569Z,46.93
2019-02-07T04:02:22.408Z,43.63
2019-02-07T04:04:49.545Z,40.63
2019-02-07T04:07:16.091Z,44.50
2019-02-07T04:09:42.638Z,40.63
2019-02-07T04:12:09.164Z,42.27
2019-02-07T04:14:36.005Z,43.80
2019-02-07T04:17:02.540Z,44.57
2019-02-07T04:19:29.380Z,46.23
2019-02-07T04:21:55.927Z,45.37
2019-02-07T04:24:23.371Z,48.57
2019-02-07T04:26:50.213Z,46.37
2019-02-07T04:29:16.746Z,44.93
2019-02-07T04:31:43.280Z,42.80
2019-02-07T04:34:09.818Z,46.47
2019-02-07T04:36:36.656Z,42.67
2019-02-07T04:39:03.191Z,48.63
2019-02-07T04:41:29.725Z,47.23
2019-02-07T04:43:56.262Z,45.40
2019-02-07T04:46:27.233Z,41.80
2019-02-07T04:48:51.180Z,44.47
2019-02-07T04:51:18.024Z,46.40
2019-02-07T04:53:44.855Z,45.30
2019-02-07T04:56:11.390Z,47.33
2019-02-07T04:58:38.237Z,46.87
2019-02-07T05:01:05.074Z,44.97
2019-02-07T05:03:31.915Z,45.37
2019-02-07T05:05:58.449Z,47.20
2019-02-07T05:08:24.983Z,44.63
2019-02-07T05:10:51.518Z,45.30
2019-02-07T05:13:18.360Z,47.10
2019-02-07T05:15:45.200Z,44.87
2019-02-07T05:18:11.736Z,46.80
2019-02-07T05:20:39.208Z,45.70
2019-02-07T05:23:05.729Z,47.30
2019-02-07T05:25:32.262Z,45.47
2019-02-07T05:27:59.115Z,47.03
2019-02-07T05:30:25.642Z,48.03
2019-02-07T05:32:52.177Z,46.60
2019-02-07T05:35:18.690Z,45.87
2019-02-07T05:37:45.243Z,43.07
2019-02-07T05:40:12.168Z,51.87
2019-02-07T05:42:38.932Z,52.40
2019-02-07T05:45:05.461Z,52.60
2019-02-07T05:47:32.031Z,49.80
2019-02-07T05:49:58.631Z,47.93
2019-02-07T05:52:25.680Z,50.73
2019-02-07T05:54:52.212Z,55.83
2019-02-07T05:57:18.746Z,50.47
2019-02-07T05:59:45.589Z,55.90
2019-02-07T06:02:12.429Z,52.67
2019-02-07T06:04:39.271Z,54.10
2019-02-07T06:07:05.806Z,50.07
2019-02-07T06:09:32.340Z,50.20
2019-02-07T06:11:59.101Z,54.40
2019-02-07T06:14:26.011Z,55.77
2019-02-07T06:17:02.326Z,55.07
2019-02-07T06:19:20.935Z,52.43
2019-02-07T06:21:48.251Z,49.33
2019-02-07T06:24:15.544Z,50.60
2019-02-07T06:26:42.077Z,48.57
2019-02-07T06:29:08.916Z,44.70
2019-02-07T06:31:35.450Z,48.67
2019-02-07T06:34:02.294Z,49.73
2019-02-07T06:36:29.137Z,46.03
2019-02-07T06:38:55.980Z,46.93
2019-02-07T06:41:22.516Z,48.30
2019-02-07T06:43:49.053Z,48.33
2019-02-07T06:46:15.886Z,51.87
2019-02-07T06:48:42.424Z,55.77
2019-02-07T06:51:08.955Z,53.90
2019-02-07T06:53:35.796Z,48.33
2019-02-07T06:56:02.641Z,45.90
2019-02-07T06:58:29.177Z,46.17
2019-02-07T07:00:55.710Z,50.43
2019-02-07T07:03:22.246Z,46.53
2019-02-07T07:05:49.088Z,44.03
2019-02-07T07:08:15.926Z,46.27
2019-02-07T07:10:42.463Z,45.37
2019-02-07T07:13:09.611Z,45.90
2019-02-07T07:15:36.450Z,46.30
2019-02-07T07:18:02.985Z,39.73
2019-02-07T07:20:29.519Z,47.43
2019-02-07T07:22:56.055Z,43.17
2019-02-07T07:25:22.691Z,44.27
2019-02-07T07:27:49.432Z,42.03
2019-02-07T07:30:16.891Z,39.70
2019-02-07T07:32:43.421Z,40.97
2019-02-07T07:35:09.956Z,42.17
2019-02-07T07:37:38.989Z,41.47
2019-02-07T07:40:04.867Z,41.30
2019-02-07T07:42:31.402Z,39.83
2019-02-07T07:44:57.940Z,42.03
2019-02-07T07:47:35.378Z,38.53
2019-02-07T07:49:52.851Z,41.33
2019-02-07T07:52:19.700Z,37.93
2019-02-07T07:54:46.224Z,38.87
2019-02-07T07:57:13.108Z,39.17
2019-02-07T07:59:39.907Z,36.40
2019-02-07T08:02:06.443Z,39.50
2019-02-07T08:04:33.386Z,43.27
2019-02-07T08:07:00.740Z,39.87
2019-02-07T08:09:27.279Z,40.80
2019-02-07T08:11:54.119Z,39.80
2019-02-07T08:14:20.650Z,35.57
2019-02-07T08:16:47.187Z,36.07
2019-02-07T08:19:14.026Z,35.60
2019-02-07T08:21:40.562Z,41.17
2019-02-07T08:24:07.096Z,38.37
2019-02-07T08:26:33.632Z,38.17
2019-02-07T08:29:00.475Z,37.23
2019-02-07T08:31:27.318Z,35.13
2019-02-07T08:33:54.155Z,35.67
2019-02-07T08:36:20.690Z,32.90
2019-02-07T08:38:49.786Z,33.37
2019-02-07T08:41:15.604Z,36.43
2019-02-07T08:43:43.059Z,39.27
2019-02-07T08:46:09.592Z,36.27
2019-02-07T08:48:36.132Z,35.10
2019-02-07T08:51:02.661Z,33.63
2019-02-07T08:53:29.200Z,38.33
2019-02-07T08:55:56.038Z,36.50
2019-02-07T08:58:22.882Z,38.10
2019-02-07T09:00:49.720Z,35.43
2019-02-07T09:03:16.868Z,34.80
2019-02-07T09:05:43.426Z,34.13
2019-02-07T09:08:10.246Z,32.57
2019-02-07T09:10:36.779Z,35.40
2019-02-07T09:13:03.325Z,33.10
2019-02-07T09:15:29.851Z,28.07
2019-02-07T09:17:56.674Z,29.60
2019-02-07T09:20:23.840Z,28.40
2019-02-07T09:22:50.375Z,27.40
2019-02-07T09:25:16.912Z,31.07
2019-02-07T09:27:43.750Z,31.97
2019-02-07T09:30:10.294Z,27.93
2019-02-07T09:32:37.126Z,25.53
2019-02-07T09:35:03.969Z,28.10
2019-02-07T09:37:30.503Z,28.37
2019-02-07T09:39:57.654Z,26.37
2019-02-07T09:42:24.493Z,27.87
2019-02-07T09:44:51.334Z,26.23
2019-02-07T09:47:17.868Z,26.80
2019-02-07T09:49:44.404Z,26.57
2019-02-07T09:52:10.938Z,24.37
2019-02-07T09:54:37.472Z,26.37
2019-02-07T09:57:04.313Z,26.00
2019-02-07T09:59:31.039Z,25.10
2019-02-07T10:01:57.693Z,23.17
2019-02-07T10:04:24.224Z,29.37
2019-02-07T10:06:50.760Z,26.43
2019-02-07T10:09:17.582Z,25.80
2019-02-07T10:11:44.134Z,23.13
2019-02-07T10:14:10.754Z,26.57
2019-02-07T10:16:37.820Z,23.03
2019-02-07T10:19:04.351Z,25.57
2019-02-07T10:21:31.194Z,22.10
2019-02-07T10:23:57.732Z,21.00
2019-02-07T10:26:24.263Z,25.37
2019-02-07T10:28:51.106Z,24.07
2019-02-07T10:31:17.953Z,22.93
2019-02-07T10:33:44.787Z,25.63
2019-02-07T10:36:11.937Z,24.77
2019-02-07T10:38:38.476Z,22.77
2019-02-07T10:41:05.303Z,22.30
2019-02-07T10:43:32.253Z,22.10
2019-02-07T10:45:59.305Z,24.07
2019-02-07T10:48:26.702Z,19.83
2019-02-07T10:50:53.601Z,19.30
2019-02-07T10:53:20.135Z,21.33
2019-02-07T10:55:46.698Z,19.87
2019-02-07T10:58:13.511Z,22.63
2019-02-07T11:00:40.057Z,19.33
2019-02-07T11:03:06.888Z,18.53
2019-02-07T11:05:33.422Z,25.67
2019-02-07T11:08:00.264Z,20.40
2019-02-07T11:10:27.105Z,33.97
2019-02-07T11:12:54.564Z,21.27
2019-02-07T11:15:21.402Z,31.97
2019-02-07T11:17:48.244Z,22.23
2019-02-07T11:20:15.205Z,24.03
2019-02-07T11:22:41.938Z,22.17
2019-02-07T11:25:08.468Z,19.73
2019-02-07T11:27:34.998Z,22.13
2019-02-07T11:30:02.453Z,20.07
2019-02-07T11:32:28.986Z,21.00
2019-02-07T11:34:55.833Z,18.03
2019-02-07T11:37:22.365Z,20.83
2019-02-07T11:39:49.204Z,18.93
2019-02-07T11:42:15.739Z,22.30
2019-02-07T11:44:43.106Z,17.83
2019-02-07T11:47:09.757Z,20.80
2019-02-07T11:49:36.898Z,21.13
2019-02-07T11:52:03.415Z,22.93
2019-02-07T11:54:30.260Z,35.03
2019-02-07T11:56:56.978Z,36.17
2019-02-07T11:59:23.631Z,37.87
2019-02-07T12:01:50.166Z,35.03
2019-02-07T12:04:17.128Z,41.23
2019-02-07T12:06:44.159Z,36.37
2019-02-07T12:09:10.692Z,33.67
2019-02-07T12:11:37.531Z,40.73
2019-02-07T12:14:04.066Z,43.40
2019-02-07T12:16:30.602Z,44.07
2019-02-07T12:18:57.440Z,48.20
2019-02-07T12:21:23.977Z,49.57
2019-02-07T12:23:50.819Z,42.20
2019-02-07T12:26:17.659Z,53.77
2019-02-07T12:28:44.194Z,50.53
2019-02-07T12:31:10.730Z,48.23
2019-02-07T12:33:37.571Z,51.97
2019-02-07T12:36:04.411Z,52.30
2019-02-07T12:38:30.947Z,36.03
2019-02-07T12:40:57.482Z,37.50
2019-02-07T12:43:24.322Z,38.43
2019-02-07T12:45:51.165Z,34.20
2019-02-07T12:48:18.006Z,37.27
2019-02-07T12:50:44.541Z,36.37
2019-02-07T12:53:11.074Z,34.80
2019-02-07T12:55:37.917Z,31.80
2019-02-07T12:58:04.456Z,32.13
2019-02-07T13:00:31.292Z,30.73
2019-02-07T13:02:58.441Z,30.93
2019-02-07T13:05:24.978Z,29.57
2019-02-07T13:07:51.511Z,28.50
2019-02-07T13:10:18.047Z,27.47
2019-02-07T13:12:44.909Z,30.03
2019-02-07T13:15:11.755Z,29.17
2019-02-07T13:17:38.570Z,29.17
2019-02-07T13:20:06.044Z,27.33
2019-02-07T13:22:32.594Z,24.57
2019-02-07T13:24:59.425Z,27.20
2019-02-07T13:27:26.289Z,27.93
2019-02-07T13:29:53.132Z,25.53
2019-02-07T13:32:19.933Z,25.73
2019-02-07T13:34:46.489Z,23.87
2019-02-07T13:37:13.091Z,22.33
2019-02-07T13:39:40.150Z,24.80
2019-02-07T13:42:06.986Z,21.43
2019-02-07T13:44:33.521Z,20.63
2019-02-07T13:47:00.362Z,19.47
2019-02-07T13:49:27.204Z,18.60
2019-02-07T13:51:53.739Z,20.13
2019-02-07T13:54:20.581Z,20.47
2019-02-07T13:56:47.742Z,21.13
2019-02-07T13:59:14.571Z,21.47
2019-02-07T14:01:41.418Z,16.00
2019-02-07T14:04:08.255Z,20.70
2019-02-07T14:06:35.100Z,23.50
2019-02-07T14:09:01.631Z,34.10
2019-02-07T14:11:28.471Z,40.13
2019-02-07T14:13:55.314Z,61.00
2019-02-07T14:16:22.157Z,68.93
2019-02-07T14:18:48.690Z,75.83
2019-02-07T14:21:15.229Z,76.40
2019-02-07T14:23:41.759Z,74.30
2019-02-07T14:26:08.601Z,71.47
2019-02-07T14:28:35.138Z,64.67
2019-02-07T14:31:01.977Z,67.23
2019-02-07T14:33:28.827Z,58.93
2019-02-07T14:35:55.667Z,59.63
2019-02-07T14:38:22.500Z,56.43
2019-02-07T14:40:49.037Z,53.67
2019-02-07T14:43:15.579Z,54.07
2019-02-07T14:45:42.105Z,50.47
2019-02-07T14:48:08.643Z,46.47
2019-02-07T14:50:35.782Z,47.67
2019-02-07T14:53:02.938Z,45.00
2019-02-07T14:55:29.471Z,43.13
2019-02-07T14:57:56.006Z,42.83
2019-02-07T15:00:22.846Z,41.80
2019-02-07T15:02:49.687Z,38.47
2019-02-07T15:05:16.223Z,41.50
2019-02-07T15:07:42.786Z,36.33
2019-02-07T15:10:09.599Z,39.63
2019-02-07T15:12:36.748Z,41.73
2019-02-07T15:15:03.592Z,37.30
2019-02-07T15:17:30.124Z,33.70
2019-02-07T15:19:56.966Z,34.40
2019-02-07T15:22:23.809Z,36.53
2019-02-07T15:24:50.341Z,34.50
2019-02-07T15:27:17.183Z,32.93
2019-02-07T15:29:43.721Z,30.93
2019-02-07T15:32:10.559Z,27.20
2019-02-07T15:34:37.099Z,24.60
2019-02-07T15:37:03.938Z,29.23
2019-02-07T15:39:31.391Z,24.27
2019-02-07T15:41:57.929Z,29.40
2019-02-07T15:44:24.771Z,25.20
2019-02-07T15:46:51.302Z,23.03
2019-02-07T15:49:17.840Z,24.77
2019-02-07T15:51:44.988Z,23.07
2019-02-07T15:54:11.521Z,24.03
2019-02-07T15:56:38.363Z,25.10
2019-02-07T15:59:05.203Z,23.03
2019-02-07T16:01:31.738Z,22.13
2019-02-07T16:03:58.586Z,23.07
2019-02-07T16:06:25.440Z,20.97
2019-02-07T16:08:51.955Z,19.83
2019-02-07T16:11:18.491Z,23.87
2019-02-07T16:13:45.027Z,20.47
2019-02-07T16:16:11.867Z,18.63
2019-02-07T16:18:38.708Z,23.73
2019-02-07T16:21:05.245Z,25.17
2019-02-07T16:23:31.776Z,24.00
2019-02-07T16:25:58.311Z,25.90
2019-02-07T16:28:25.180Z,25.63
2019-02-07T16:30:51.690Z,21.60
2019-02-07T16:33:18.222Z,22.03
2019-02-07T16:35:44.759Z,23.93
2019-02-07T16:38:11.296Z,21.57
2019-02-07T16:40:38.133Z,23.23
2019-02-07T16:43:04.672Z,22.87
2019-02-07T16:45:31.508Z,25.57
2019-02-07T16:47:58.669Z,20.23
2019-02-07T16:50:25.192Z,24.93
2019-02-07T16:52:51.730Z,20.70
2019-02-07T16:55:18.263Z,25.20
2019-02-07T16:57:45.103Z,25.80
2019-02-07T17:00:11.637Z,23.93
2019-02-07T17:02:38.176Z,24.20
2019-02-07T17:05:05.014Z,24.27
2019-02-07T17:07:32.162Z,25.60
2019-02-07T17:09:58.698Z,29.60
2019-02-07T17:12:25.234Z,27.37
2019-02-07T17:14:51.770Z,28.23
2019-02-07T17:17:18.613Z,27.57
2019-02-07T17:19:45.142Z,22.60
2019-02-07T17:22:11.985Z,30.00
2019-02-07T17:24:38.520Z,23.37
2019-02-07T17:27:05.361Z,24.37
2019-02-07T17:29:31.895Z,27.63
2019-02-07T17:31:58.414Z,24.50
2019-02-07T17:34:25.285Z,42.00
2019-02-07T17:36:51.806Z,27.73
2019-02-07T17:39:18.338Z,33.93
2019-02-07T17:41:45.181Z,27.63
2019-02-07T17:44:12.022Z,27.17
2019-02-07T17:46:39.174Z,27.57
2019-02-07T17:49:05.706Z,23.43
2019-02-07T17:51:32.547Z,26.17
2019-02-07T17:53:59.085Z,29.97
2019-02-07T17:56:25.619Z,27.33
2019-02-07T17:58:52.152Z,25.33
2019-02-07T18:01:18.992Z,28.40
2019-02-07T18:03:46.448Z,30.90
2019-02-07T18:06:13.290Z,22.43
2019-02-07T18:08:40.134Z,25.57
2019-02-07T18:11:06.976Z,28.40
2019-02-07T18:13:33.520Z,25.87
2019-02-07T18:16:01.274Z,25.43
2019-02-07T18:18:28.112Z,25.10
2019-02-07T18:20:54.955Z,27.40
2019-02-07T18:23:21.489Z,24.73
2019-02-07T18:25:48.641Z,24.37
2019-02-07T18:28:15.485Z,28.47
2019-02-07T18:30:42.017Z,30.10
2019-02-07T18:33:08.858Z,30.13
2019-02-07T18:35:35.394Z,23.97
2019-02-07T18:38:02.235Z,29.03
2019-02-07T18:40:29.078Z,30.40
2019-02-07T18:42:55.921Z,34.27
2019-02-07T18:45:22.450Z,26.90
2019-02-07T18:47:49.292Z,36.77
2019-02-07T18:50:16.325Z,34.23
2019-02-07T18:52:43.085Z,30.90
2019-02-07T18:55:10.139Z,29.47
2019-02-07T18:57:36.662Z,31.67
2019-02-07T19:00:03.810Z,27.73
2019-02-07T19:02:30.649Z,27.50
2019-02-07T19:04:57.495Z,31.40
2019-02-07T19:07:24.351Z,30.37
2019-02-07T19:09:51.176Z,28.03
2019-02-07T19:12:18.030Z,26.03
2019-02-07T19:14:44.874Z,28.53
2019-02-07T19:17:11.481Z,35.97
2019-02-07T19:19:38.235Z,31.03
2019-02-07T19:22:04.767Z,28.07
2019-02-07T19:24:31.917Z,28.87
2019-02-07T19:26:58.454Z,30.47
2019-02-07T19:29:24.986Z,30.50
2019-02-07T19:31:51.832Z,27.63
2019-02-07T19:34:18.361Z,29.40
2019-02-07T19:36:45.203Z,30.33
2019-02-07T19:39:12.052Z,30.03
2019-02-07T19:41:38.580Z,32.07
2019-02-07T19:44:05.421Z,33.70
2019-02-07T19:46:32.558Z,31.03
2019-02-07T19:48:59.105Z,33.77
2019-02-07T19:51:25.643Z,33.83
2019-02-07T19:53:52.482Z,39.00
2019-02-07T19:56:19.015Z,33.03
2019-02-07T19:58:45.572Z,34.50
2019-02-07T20:01:12.564Z,36.53
2019-02-07T20:03:39.553Z,36.27
2019-02-07T20:06:06.075Z,35.83
2019-02-07T20:08:32.920Z,38.00
2019-02-07T20:10:59.454Z,43.17
2019-02-07T20:13:26.298Z,33.37
2019-02-07T20:15:53.136Z,38.80
2019-02-07T20:18:19.675Z,42.30
2019-02-07T20:20:46.512Z,38.47
2019-02-07T20:23:13.667Z,44.40
2019-02-07T20:25:40.808Z,43.93
2019-02-07T20:28:07.348Z,40.23
2019-02-07T20:30:34.183Z,43.80
2019-02-07T20:33:00.947Z,42.87
2019-02-07T20:35:27.564Z,48.77
2019-02-07T20:37:54.997Z,43.53
2019-02-07T20:40:21.763Z,44.13
2019-02-07T20:42:48.392Z,42.57
2019-02-07T20:45:15.238Z,44.77
2019-02-07T20:47:43.829Z,44.27
2019-02-07T20:50:10.761Z,44.47
2019-02-07T20:52:37.604Z,50.37
2019-02-07T20:55:04.948Z,43.00
2019-02-07T20:57:32.972Z,47.13
2019-02-07T20:59:59.988Z,52.07
2019-02-07T21:02:27.474Z,48.53
2019-02-07T21:04:54.269Z,47.77
2019-02-07T21:07:21.413Z,51.80
2019-02-07T21:09:48.273Z,45.57
2019-02-07T21:12:15.102Z,52.17
2019-02-07T21:14:42.026Z,49.77
2019-02-07T21:17:08.787Z,48.67
2019-02-07T21:19:35.319Z,45.90
2019-02-07T21:22:02.150Z,48.87
2019-02-07T21:24:28.694Z,52.67
2019-02-07T21:26:56.151Z,48.93
2019-02-07T21:29:23.340Z,45.33
2019-02-07T21:31:51.394Z,47.43
2019-02-07T21:34:19.886Z,52.00
2019-02-07T21:36:47.204Z,54.93
2019-02-07T21:39:14.868Z,49.70
2019-02-07T21:41:41.806Z,47.23
2019-02-07T21:44:09.263Z,44.50
2019-02-07T21:46:36.107Z,52.83
2019-02-07T21:49:02.639Z,48.17
2019-02-07T21:51:29.480Z,51.97
2019-02-07T21:53:56.016Z,52.93
2019-02-07T21:56:22.857Z,51.07
2019-02-07T21:58:49.721Z,47.37
2019-02-07T22:01:16.243Z,50.53
2019-02-07T22:03:42.770Z,50.27
2019-02-07T22:06:09.612Z,52.93
2019-02-07T22:08:36.454Z,53.60
2019-02-07T22:11:02.990Z,48.40
2019-02-07T22:13:29.828Z,49.23
2019-02-07T22:15:56.669Z,50.10
2019-02-07T22:18:23.603Z,53.30
2019-02-07T22:20:50.353Z,49.93
2019-02-07T22:23:16.887Z,59.67
2019-02-07T22:25:43.732Z,54.43
2019-02-07T22:28:10.879Z,53.53
2019-02-07T22:30:37.722Z,54.23
2019-02-07T22:33:04.255Z,53.43
2019-02-07T22:35:31.096Z,51.57
2019-02-07T22:37:57.937Z,53.67
2019-02-07T22:40:24.471Z,59.50
2019-02-07T22:42:51.317Z,49.83
2019-02-07T22:45:17.850Z,49.30
2019-02-07T22:47:45.003Z,47.27
2019-02-07T22:50:11.840Z,43.87
2019-02-07T22:52:38.672Z,46.47
2019-02-07T22:55:05.215Z,50.30
2019-02-07T22:57:32.046Z,49.17
2019-02-07T22:59:58.592Z,45.77
2019-02-07T23:02:25.138Z,43.33
2019-02-07T23:04:51.971Z,48.37
2019-02-07T23:07:18.842Z,44.73
2019-02-07T23:09:45.651Z,46.90
2019-02-07T23:12:12.494Z,48.77
2019-02-07T23:14:39.032Z,42.43
2019-02-07T23:17:05.581Z,46.27
2019-02-07T23:19:32.454Z,44.40
2019-02-07T23:21:59.347Z,41.30
2019-02-07T23:24:26.090Z,50.27
2019-02-07T23:26:52.623Z,42.90
2019-02-07T23:29:19.160Z,42.63
2019-02-07T23:31:45.996Z,42.10
2019-02-07T23:34:12.534Z,43.03
2019-02-07T23:36:39.069Z,46.87
2019-02-07T23:39:05.912Z,45.20
2019-02-07T23:41:32.747Z,47.00
2019-02-07T23:43:59.283Z,44.90
2019-02-07T23:46:26.125Z,42.83
2019-02-07T23:48:52.663Z,42.70
2019-02-07T23:51:19.501Z,42.87
2019-02-07T23:53:46.040Z,46.77
2019-02-07T23:56:12.570Z,45.20
2019-02-07T23:58:39.412Z,44.63
